sensor_id;sensor_type;location;lat;lon;timestamp;P1;durP1;ratioP1;P2;durP2;ratioP2
27632;SDS011;15046;50.930;13.334;2022-12-07T00:01:20;22.38;;;10.93;;
27632;SDS011;15046;50.930;13.334;2022-12-07T00:03:58;21.52;;;10.60;;
27632;SDS011;15046;50.930;13.334;2022-12-07T00:06:29;24.58;;;10.88;;
27632;SDS011;15046;50.930;13.334;2022-12-07T00:08:56;20.15;;;9.95;;
27632;SDS011;15046;50.930;13.334;2022-12-07T00:11:22;20.48;;;10.23;;
27632;SDS011;15046;50.930;13.334;2022-12-07T00:13:52;26.35;;;10.90;;
27632;SDS011;15046;50.930;13.334;2022-12-07T00:16:20;26.58;;;10.65;;
27632;SDS011;15046;50.930;13.334;2022-12-07T00:18:47;23.05;;;11.13;;
27632;SDS011;15046;50.930;13.334;2022-12-07T00:21:17;26.45;;;11.10;;
27632;SDS011;15046;50.930;13.334;2022-12-07T00:23:45;25.75;;;10.45;;
27632;SDS011;15046;50.930;13.334;2022-12-07T00:26:13;21.92;;;9.98;;
27632;SDS011;15046;50.930;13.334;2022-12-07T00:28:41;24.98;;;11.70;;
27632;SDS011;15046;50.930;13.334;2022-12-07T00:31:12;20.48;;;9.40;;
27632;SDS011;15046;50.930;13.334;2022-12-07T00:33:39;19.90;;;9.43;;
27632;SDS011;15046;50.930;13.334;2022-12-07T00:36:06;21.83;;;9.60;;
27632;SDS011;15046;50.930;13.334;2022-12-07T00:38:34;17.42;;;9.40;;
27632;SDS011;15046;50.930;13.334;2022-12-07T00:41:02;17.58;;;7.82;;
27632;SDS011;15046;50.930;13.334;2022-12-07T00:43:33;18.55;;;8.88;;
27632;SDS011;15046;50.930;13.334;2022-12-07T00:45:58;15.48;;;7.78;;
27632;SDS011;15046;50.930;13.334;2022-12-07T00:48:24;18.85;;;8.65;;
27632;SDS011;15046;50.930;13.334;2022-12-07T00:50:50;14.98;;;7.45;;
27632;SDS011;15046;50.930;13.334;2022-12-07T00:53:16;15.70;;;7.60;;
27632;SDS011;15046;50.930;13.334;2022-12-07T00:55:43;17.92;;;8.35;;
27632;SDS011;15046;50.930;13.334;2022-12-07T00:58:09;18.17;;;8.15;;
27632;SDS011;15046;50.930;13.334;2022-12-07T01:00:36;16.15;;;7.55;;
27632;SDS011;15046;50.930;13.334;2022-12-07T01:03:04;18.35;;;7.35;;
27632;SDS011;15046;50.930;13.334;2022-12-07T01:05:30;16.80;;;7.47;;
27632;SDS011;15046;50.930;13.334;2022-12-07T01:07:56;18.35;;;7.85;;
27632;SDS011;15046;50.930;13.334;2022-12-07T01:10:22;15.05;;;6.43;;
27632;SDS011;15046;50.930;13.334;2022-12-07T01:12:48;15.25;;;7.28;;
27632;SDS011;15046;50.930;13.334;2022-12-07T01:15:13;20.75;;;8.00;;
27632;SDS011;15046;50.930;13.334;2022-12-07T01:17:39;17.25;;;7.28;;
27632;SDS011;15046;50.930;13.334;2022-12-07T01:20:05;15.52;;;7.93;;
27632;SDS011;15046;50.930;13.334;2022-12-07T01:22:35;18.08;;;7.28;;
27632;SDS011;15046;50.930;13.334;2022-12-07T01:25:06;19.35;;;6.97;;
27632;SDS011;15046;50.930;13.334;2022-12-07T01:27:33;13.63;;;6.70;;
27632;SDS011;15046;50.930;13.334;2022-12-07T01:30:00;13.77;;;7.22;;
27632;SDS011;15046;50.930;13.334;2022-12-07T01:32:26;13.60;;;6.47;;
27632;SDS011;15046;50.930;13.334;2022-12-07T01:34:52;15.00;;;6.85;;
27632;SDS011;15046;50.930;13.334;2022-12-07T01:37:18;17.30;;;7.57;;
27632;SDS011;15046;50.930;13.334;2022-12-07T01:39:44;17.80;;;7.88;;
27632;SDS011;15046;50.930;13.334;2022-12-07T01:42:13;18.88;;;9.00;;
27632;SDS011;15046;50.930;13.334;2022-12-07T01:47:42;25.58;;;9.15;;
27632;SDS011;15046;50.930;13.334;2022-12-07T01:50:11;26.45;;;10.88;;
27632;SDS011;15046;50.930;13.334;2022-12-07T01:52:38;25.90;;;11.43;;
27632;SDS011;15046;50.930;13.334;2022-12-07T01:55:07;23.38;;;10.85;;
27632;SDS011;15046;50.930;13.334;2022-12-07T01:57:38;28.38;;;13.07;;
27632;SDS011;15046;50.930;13.334;2022-12-07T02:00:08;32.10;;;13.13;;
27632;SDS011;15046;50.930;13.334;2022-12-07T02:02:40;27.13;;;12.23;;
27632;SDS011;15046;50.930;13.334;2022-12-07T02:05:17;25.63;;;12.10;;
27632;SDS011;15046;50.930;13.334;2022-12-07T02:07:43;27.77;;;11.55;;
27632;SDS011;15046;50.930;13.334;2022-12-07T02:12:43;34.25;;;13.60;;
27632;SDS011;15046;50.930;13.334;2022-12-07T02:15:12;31.25;;;13.45;;
27632;SDS011;15046;50.930;13.334;2022-12-07T02:20:24;24.27;;;10.98;;
27632;SDS011;15046;50.930;13.334;2022-12-07T02:30:50;29.23;;;11.30;;
27632;SDS011;15046;50.930;13.334;2022-12-07T02:36:11;27.30;;;11.20;;
27632;SDS011;15046;50.930;13.334;2022-12-07T02:38:51;22.10;;;10.68;;
27632;SDS011;15046;50.930;13.334;2022-12-07T02:41:21;22.20;;;10.90;;
27632;SDS011;15046;50.930;13.334;2022-12-07T02:44:03;23.23;;;11.70;;
27632;SDS011;15046;50.930;13.334;2022-12-07T02:46:36;25.92;;;10.90;;
27632;SDS011;15046;50.930;13.334;2022-12-07T02:49:27;26.23;;;10.25;;
27632;SDS011;15046;50.930;13.334;2022-12-07T02:51:54;22.17;;;10.95;;
27632;SDS011;15046;50.930;13.334;2022-12-07T02:54:20;21.83;;;10.60;;
27632;SDS011;15046;50.930;13.334;2022-12-07T02:56:48;21.88;;;10.13;;
27632;SDS011;15046;50.930;13.334;2022-12-07T03:02:11;18.08;;;9.30;;
27632;SDS011;15046;50.930;13.334;2022-12-07T03:18:53;19.38;;;9.02;;
27632;SDS011;15046;50.930;13.334;2022-12-07T03:21:22;24.08;;;10.60;;
27632;SDS011;15046;50.930;13.334;2022-12-07T03:23:53;21.13;;;10.82;;
27632;SDS011;15046;50.930;13.334;2022-12-07T03:26:22;27.42;;;11.98;;
27632;SDS011;15046;50.930;13.334;2022-12-07T03:28:56;25.58;;;10.95;;
27632;SDS011;15046;50.930;13.334;2022-12-07T03:31:26;24.88;;;11.05;;
27632;SDS011;15046;50.930;13.334;2022-12-07T03:34:05;25.98;;;11.43;;
27632;SDS011;15046;50.930;13.334;2022-12-07T03:37:28;25.80;;;11.00;;
27632;SDS011;15046;50.930;13.334;2022-12-07T03:42:01;26.80;;;12.20;;
27632;SDS011;15046;50.930;13.334;2022-12-07T03:44:30;27.35;;;11.90;;
27632;SDS011;15046;50.930;13.334;2022-12-07T03:47:05;25.58;;;11.15;;
27632;SDS011;15046;50.930;13.334;2022-12-07T03:52:39;19.95;;;9.77;;
27632;SDS011;15046;50.930;13.334;2022-12-07T03:57:44;21.98;;;10.05;;
27632;SDS011;15046;50.930;13.334;2022-12-07T04:00:12;21.13;;;9.60;;
27632;SDS011;15046;50.930;13.334;2022-12-07T04:02:38;20.35;;;9.88;;
27632;SDS011;15046;50.930;13.334;2022-12-07T04:05:05;21.58;;;9.75;;
27632;SDS011;15046;50.930;13.334;2022-12-07T04:07:31;20.48;;;9.40;;
27632;SDS011;15046;50.930;13.334;2022-12-07T04:09:57;19.20;;;8.65;;
27632;SDS011;15046;50.930;13.334;2022-12-07T04:12:23;19.73;;;8.20;;
27632;SDS011;15046;50.930;13.334;2022-12-07T04:14:49;16.92;;;8.05;;
27632;SDS011;15046;50.930;13.334;2022-12-07T04:17:15;17.27;;;8.50;;
27632;SDS011;15046;50.930;13.334;2022-12-07T04:19:41;17.92;;;8.00;;
27632;SDS011;15046;50.930;13.334;2022-12-07T04:22:07;14.25;;;7.57;;
27632;SDS011;15046;50.930;13.334;2022-12-07T04:24:33;17.50;;;8.15;;
27632;SDS011;15046;50.930;13.334;2022-12-07T04:26:59;13.25;;;6.82;;
27632;SDS011;15046;50.930;13.334;2022-12-07T04:29:26;16.13;;;7.95;;
27632;SDS011;15046;50.930;13.334;2022-12-07T04:31:52;14.80;;;7.03;;
27632;SDS011;15046;50.930;13.334;2022-12-07T04:34:18;19.67;;;7.88;;
27632;SDS011;15046;50.930;13.334;2022-12-07T04:36:45;15.25;;;7.57;;
27632;SDS011;15046;50.930;13.334;2022-12-07T04:39:17;17.17;;;7.45;;
27632;SDS011;15046;50.930;13.334;2022-12-07T04:41:47;14.02;;;5.78;;
27632;SDS011;15046;50.930;13.334;2022-12-07T04:44:13;13.32;;;6.80;;
27632;SDS011;15046;50.930;13.334;2022-12-07T04:46:40;14.60;;;6.90;;
27632;SDS011;15046;50.930;13.334;2022-12-07T04:49:06;15.52;;;6.95;;
27632;SDS011;15046;50.930;13.334;2022-12-07T04:51:32;12.93;;;6.47;;
27632;SDS011;15046;50.930;13.334;2022-12-07T04:53:58;13.02;;;6.53;;
27632;SDS011;15046;50.930;13.334;2022-12-07T04:56:24;12.10;;;5.70;;
27632;SDS011;15046;50.930;13.334;2022-12-07T04:58:51;14.27;;;7.18;;
27632;SDS011;15046;50.930;13.334;2022-12-07T05:01:18;13.00;;;6.70;;
27632;SDS011;15046;50.930;13.334;2022-12-07T05:03:44;9.35;;;5.43;;
27632;SDS011;15046;50.930;13.334;2022-12-07T05:06:10;9.77;;;5.18;;
27632;SDS011;15046;50.930;13.334;2022-12-07T05:08:37;11.68;;;5.75;;
27632;SDS011;15046;50.930;13.334;2022-12-07T05:11:03;10.30;;;4.88;;
27632;SDS011;15046;50.930;13.334;2022-12-07T05:13:30;10.55;;;5.07;;
27632;SDS011;15046;50.930;13.334;2022-12-07T05:15:59;12.52;;;5.93;;
27632;SDS011;15046;50.930;13.334;2022-12-07T05:18:25;9.35;;;4.60;;
27632;SDS011;15046;50.930;13.334;2022-12-07T05:20:51;12.48;;;5.82;;
27632;SDS011;15046;50.930;13.334;2022-12-07T05:23:17;7.65;;;4.60;;
27632;SDS011;15046;50.930;13.334;2022-12-07T05:25:44;9.90;;;4.88;;
27632;SDS011;15046;50.930;13.334;2022-12-07T05:28:10;10.88;;;5.13;;
27632;SDS011;15046;50.930;13.334;2022-12-07T05:30:36;9.60;;;4.47;;
27632;SDS011;15046;50.930;13.334;2022-12-07T05:33:02;9.63;;;4.85;;
27632;SDS011;15046;50.930;13.334;2022-12-07T05:35:28;10.07;;;4.72;;
27632;SDS011;15046;50.930;13.334;2022-12-07T05:37:55;8.32;;;4.35;;
27632;SDS011;15046;50.930;13.334;2022-12-07T05:40:22;10.52;;;4.88;;
27632;SDS011;15046;50.930;13.334;2022-12-07T05:42:47;9.13;;;4.75;;
27632;SDS011;15046;50.930;13.334;2022-12-07T05:45:13;8.65;;;4.22;;
27632;SDS011;15046;50.930;13.334;2022-12-07T05:47:39;10.18;;;5.03;;
27632;SDS011;15046;50.930;13.334;2022-12-07T05:50:05;8.25;;;4.10;;
27632;SDS011;15046;50.930;13.334;2022-12-07T05:52:31;11.15;;;5.35;;
27632;SDS011;15046;50.930;13.334;2022-12-07T05:54:57;9.63;;;4.53;;
27632;SDS011;15046;50.930;13.334;2022-12-07T05:57:23;7.72;;;3.97;;
27632;SDS011;15046;50.930;13.334;2022-12-07T05:59:49;9.63;;;4.88;;
27632;SDS011;15046;50.930;13.334;2022-12-07T06:02:15;10.32;;;4.78;;
27632;SDS011;15046;50.930;13.334;2022-12-07T06:04:45;8.77;;;4.22;;
27632;SDS011;15046;50.930;13.334;2022-12-07T06:07:12;9.00;;;4.72;;
27632;SDS011;15046;50.930;13.334;2022-12-07T06:09:39;7.75;;;4.18;;
27632;SDS011;15046;50.930;13.334;2022-12-07T06:12:05;10.90;;;5.70;;
27632;SDS011;15046;50.930;13.334;2022-12-07T06:14:50;10.77;;;5.40;;
27632;SDS011;15046;50.930;13.334;2022-12-07T06:17:16;11.23;;;5.25;;
27632;SDS011;15046;50.930;13.334;2022-12-07T06:19:42;10.32;;;5.93;;
27632;SDS011;15046;50.930;13.334;2022-12-07T06:22:08;10.48;;;5.72;;
27632;SDS011;15046;50.930;13.334;2022-12-07T06:24:36;10.98;;;5.78;;
27632;SDS011;15046;50.930;13.334;2022-12-07T06:27:03;11.38;;;5.75;;
27632;SDS011;15046;50.930;13.334;2022-12-07T06:29:30;11.65;;;6.22;;
27632;SDS011;15046;50.930;13.334;2022-12-07T06:31:56;16.13;;;7.18;;
27632;SDS011;15046;50.930;13.334;2022-12-07T06:34:23;13.15;;;6.95;;
27632;SDS011;15046;50.930;13.334;2022-12-07T06:36:49;13.25;;;6.47;;
27632;SDS011;15046;50.930;13.334;2022-12-07T06:39:17;15.25;;;8.20;;
27632;SDS011;15046;50.930;13.334;2022-12-07T06:41:43;12.60;;;6.63;;
27632;SDS011;15046;50.930;13.334;2022-12-07T06:44:09;14.20;;;6.65;;
27632;SDS011;15046;50.930;13.334;2022-12-07T06:46:35;11.80;;;6.40;;
27632;SDS011;15046;50.930;13.334;2022-12-07T06:49:02;13.15;;;6.97;;
27632;SDS011;15046;50.930;13.334;2022-12-07T06:51:29;14.20;;;6.68;;
27632;SDS011;15046;50.930;13.334;2022-12-07T06:53:55;13.98;;;6.78;;
27632;SDS011;15046;50.930;13.334;2022-12-07T06:56:20;12.27;;;5.90;;
27632;SDS011;15046;50.930;13.334;2022-12-07T06:58:47;13.35;;;6.53;;
27632;SDS011;15046;50.930;13.334;2022-12-07T07:01:14;11.82;;;5.90;;
27632;SDS011;15046;50.930;13.334;2022-12-07T07:03:41;11.15;;;5.78;;
27632;SDS011;15046;50.930;13.334;2022-12-07T07:06:08;12.60;;;5.35;;
27632;SDS011;15046;50.930;13.334;2022-12-07T07:08:34;11.65;;;6.57;;
27632;SDS011;15046;50.930;13.334;2022-12-07T07:11:01;13.13;;;5.50;;
27632;SDS011;15046;50.930;13.334;2022-12-07T07:13:27;11.95;;;5.90;;
27632;SDS011;15046;50.930;13.334;2022-12-07T07:15:53;11.90;;;5.95;;
27632;SDS011;15046;50.930;13.334;2022-12-07T07:18:19;11.77;;;6.13;;
27632;SDS011;15046;50.930;13.334;2022-12-07T07:20:45;13.60;;;6.25;;
27632;SDS011;15046;50.930;13.334;2022-12-07T07:23:10;16.13;;;5.78;;
27632;SDS011;15046;50.930;13.334;2022-12-07T07:25:36;13.60;;;6.97;;
27632;SDS011;15046;50.930;13.334;2022-12-07T07:28:02;12.93;;;6.60;;
27632;SDS011;15046;50.930;13.334;2022-12-07T07:30:28;16.73;;;7.28;;
27632;SDS011;15046;50.930;13.334;2022-12-07T07:32:58;14.77;;;6.78;;
27632;SDS011;15046;50.930;13.334;2022-12-07T07:37:50;15.70;;;8.10;;
27632;SDS011;15046;50.930;13.334;2022-12-07T07:40:16;15.68;;;8.23;;
27632;SDS011;15046;50.930;13.334;2022-12-07T07:42:42;19.33;;;9.00;;
27632;SDS011;15046;50.930;13.334;2022-12-07T07:45:08;16.85;;;8.40;;
27632;SDS011;15046;50.930;13.334;2022-12-07T07:47:34;19.63;;;9.48;;
27632;SDS011;15046;50.930;13.334;2022-12-07T07:50:00;20.02;;;8.90;;
27632;SDS011;15046;50.930;13.334;2022-12-07T07:52:26;26.08;;;10.60;;
27632;SDS011;15046;50.930;13.334;2022-12-07T07:54:53;20.02;;;10.15;;
27632;SDS011;15046;50.930;13.334;2022-12-07T07:57:18;21.45;;;9.85;;
27632;SDS011;15046;50.930;13.334;2022-12-07T07:59:44;22.67;;;10.65;;
27632;SDS011;15046;50.930;13.334;2022-12-07T08:02:14;23.08;;;11.23;;
27632;SDS011;15046;50.930;13.334;2022-12-07T08:04:41;26.05;;;12.00;;
27632;SDS011;15046;50.930;13.334;2022-12-07T08:07:08;27.85;;;11.02;;
27632;SDS011;15046;50.930;13.334;2022-12-07T08:09:34;22.67;;;9.90;;
27632;SDS011;15046;50.930;13.334;2022-12-07T08:11:59;20.98;;;9.95;;
27632;SDS011;15046;50.930;13.334;2022-12-07T08:14:25;21.58;;;10.07;;
27632;SDS011;15046;50.930;13.334;2022-12-07T08:16:52;15.30;;;8.32;;
27632;SDS011;15046;50.930;13.334;2022-12-07T08:19:18;18.73;;;10.40;;
27632;SDS011;15046;50.930;13.334;2022-12-07T08:21:44;20.52;;;10.07;;
27632;SDS011;15046;50.930;13.334;2022-12-07T08:24:09;19.52;;;10.30;;
27632;SDS011;15046;50.930;13.334;2022-12-07T08:26:35;22.23;;;10.52;;
27632;SDS011;15046;50.930;13.334;2022-12-07T08:29:01;20.38;;;10.43;;
27632;SDS011;15046;50.930;13.334;2022-12-07T08:31:27;17.85;;;9.38;;
27632;SDS011;15046;50.930;13.334;2022-12-07T08:33:53;18.13;;;9.02;;
27632;SDS011;15046;50.930;13.334;2022-12-07T08:36:19;20.08;;;9.52;;
27632;SDS011;15046;50.930;13.334;2022-12-07T08:38:47;16.95;;;9.35;;
27632;SDS011;15046;50.930;13.334;2022-12-07T08:41:14;18.90;;;9.32;;
27632;SDS011;15046;50.930;13.334;2022-12-07T08:43:40;16.50;;;8.88;;
27632;SDS011;15046;50.930;13.334;2022-12-07T08:48:32;16.77;;;8.00;;
27632;SDS011;15046;50.930;13.334;2022-12-07T08:51:00;15.93;;;8.55;;
27632;SDS011;15046;50.930;13.334;2022-12-07T08:53:27;15.63;;;8.57;;
27632;SDS011;15046;50.930;13.334;2022-12-07T08:55:54;18.95;;;8.82;;
27632;SDS011;15046;50.930;13.334;2022-12-07T08:58:21;16.52;;;8.05;;
27632;SDS011;15046;50.930;13.334;2022-12-07T09:00:47;15.43;;;7.65;;
27632;SDS011;15046;50.930;13.334;2022-12-07T09:03:13;17.85;;;8.68;;
27632;SDS011;15046;50.930;13.334;2022-12-07T09:05:39;14.75;;;8.00;;
27632;SDS011;15046;50.930;13.334;2022-12-07T09:08:04;15.25;;;7.03;;
27632;SDS011;15046;50.930;13.334;2022-12-07T09:10:31;13.85;;;7.70;;
27632;SDS011;15046;50.930;13.334;2022-12-07T09:12:57;12.25;;;6.28;;
27632;SDS011;15046;50.930;13.334;2022-12-07T09:15:27;19.67;;;7.35;;
27632;SDS011;15046;50.930;13.334;2022-12-07T09:17:54;15.52;;;7.97;;
27632;SDS011;15046;50.930;13.334;2022-12-07T09:20:20;13.27;;;6.65;;
27632;SDS011;15046;50.930;13.334;2022-12-07T09:22:46;14.52;;;6.00;;
27632;SDS011;15046;50.930;13.334;2022-12-07T09:25:12;12.85;;;6.38;;
27632;SDS011;15046;50.930;13.334;2022-12-07T09:27:38;10.70;;;5.82;;
27632;SDS011;15046;50.930;13.334;2022-12-07T09:30:04;12.15;;;6.78;;
27632;SDS011;15046;50.930;13.334;2022-12-07T09:32:31;13.32;;;6.45;;
27632;SDS011;15046;50.930;13.334;2022-12-07T09:34:57;13.35;;;6.30;;
27632;SDS011;15046;50.930;13.334;2022-12-07T09:37:22;11.93;;;6.28;;
27632;SDS011;15046;50.930;13.334;2022-12-07T09:39:48;13.00;;;6.20;;
27632;SDS011;15046;50.930;13.334;2022-12-07T09:42:26;13.27;;;5.47;;
27632;SDS011;15046;50.930;13.334;2022-12-07T09:45:00;10.10;;;4.97;;
27632;SDS011;15046;50.930;13.334;2022-12-07T09:47:27;11.27;;;6.25;;
27632;SDS011;15046;50.930;13.334;2022-12-07T09:50:00;11.23;;;5.88;;
27632;SDS011;15046;50.930;13.334;2022-12-07T09:52:30;12.30;;;6.45;;
27632;SDS011;15046;50.930;13.334;2022-12-07T09:54:57;10.80;;;5.57;;
27632;SDS011;15046;50.930;13.334;2022-12-07T09:57:32;11.68;;;5.70;;
27632;SDS011;15046;50.930;13.334;2022-12-07T10:00:04;13.10;;;5.93;;
27632;SDS011;15046;50.930;13.334;2022-12-07T10:02:42;11.20;;;5.78;;
27632;SDS011;15046;50.930;13.334;2022-12-07T10:05:12;12.48;;;5.75;;
27632;SDS011;15046;50.930;13.334;2022-12-07T10:07:40;12.60;;;6.63;;
27632;SDS011;15046;50.930;13.334;2022-12-07T10:10:12;11.25;;;6.05;;
27632;SDS011;15046;50.930;13.334;2022-12-07T10:18:26;10.50;;;5.68;;
27632;SDS011;15046;50.930;13.334;2022-12-07T10:26:39;9.55;;;4.95;;
27632;SDS011;15046;50.930;13.334;2022-12-07T10:29:16;10.30;;;5.38;;
27632;SDS011;15046;50.930;13.334;2022-12-07T10:31:43;12.25;;;5.70;;
27632;SDS011;15046;50.930;13.334;2022-12-07T10:34:29;11.77;;;6.13;;
27632;SDS011;15046;50.930;13.334;2022-12-07T10:39:58;12.95;;;6.88;;
27632;SDS011;15046;50.930;13.334;2022-12-07T10:42:31;9.60;;;5.32;;
27632;SDS011;15046;50.930;13.334;2022-12-07T10:45:07;12.27;;;5.50;;
27632;SDS011;15046;50.930;13.334;2022-12-07T10:50:15;13.57;;;6.10;;
27632;SDS011;15046;50.930;13.334;2022-12-07T10:52:54;9.27;;;5.05;;
27632;SDS011;15046;50.930;13.334;2022-12-07T11:01:30;13.98;;;5.90;;
27632;SDS011;15046;50.930;13.334;2022-12-07T11:09:44;12.55;;;6.13;;
27632;SDS011;15046;50.930;13.334;2022-12-07T11:18:07;13.90;;;5.93;;
27632;SDS011;15046;50.930;13.334;2022-12-07T11:20:56;11.70;;;5.53;;
27632;SDS011;15046;50.930;13.334;2022-12-07T11:37:30;12.90;;;5.07;;
27632;SDS011;15046;50.930;13.334;2022-12-07T11:40:03;10.43;;;5.40;;
27632;SDS011;15046;50.930;13.334;2022-12-07T11:42:38;10.05;;;4.72;;
27632;SDS011;15046;50.930;13.334;2022-12-07T11:45:13;10.45;;;4.90;;
27632;SDS011;15046;50.930;13.334;2022-12-07T12:03:56;10.45;;;4.75;;
27632;SDS011;15046;50.930;13.334;2022-12-07T12:06:24;8.90;;;4.32;;
27632;SDS011;15046;50.930;13.334;2022-12-07T12:11:35;9.48;;;4.53;;
27632;SDS011;15046;50.930;13.334;2022-12-07T12:19:41;11.30;;;5.07;;
27632;SDS011;15046;50.930;13.334;2022-12-07T12:22:15;9.23;;;5.30;;
27632;SDS011;15046;50.930;13.334;2022-12-07T12:24:48;10.52;;;5.32;;
27632;SDS011;15046;50.930;13.334;2022-12-07T12:27:20;7.40;;;3.88;;
27632;SDS011;15046;50.930;13.334;2022-12-07T12:29:50;11.23;;;4.88;;
27632;SDS011;15046;50.930;13.334;2022-12-07T12:37:57;8.88;;;4.68;;
27632;SDS011;15046;50.930;13.334;2022-12-07T12:40:54;10.45;;;5.22;;
27632;SDS011;15046;50.930;13.334;2022-12-07T12:43:42;12.00;;;4.75;;
27632;SDS011;15046;50.930;13.334;2022-12-07T12:57:37;7.13;;;3.78;;
27632;SDS011;15046;50.930;13.334;2022-12-07T13:03:01;15.40;;;5.00;;
27632;SDS011;15046;50.930;13.334;2022-12-07T13:05:30;7.85;;;3.80;;
27632;SDS011;15046;50.930;13.334;2022-12-07T13:08:01;12.80;;;4.63;;
27632;SDS011;15046;50.930;13.334;2022-12-07T13:10:48;11.77;;;5.32;;
27632;SDS011;15046;50.930;13.334;2022-12-07T13:21:39;9.82;;;4.53;;
27632;SDS011;15046;50.930;13.334;2022-12-07T13:23:55;10.52;;;4.38;;
27632;SDS011;15046;50.930;13.334;2022-12-07T13:26:36;9.25;;;3.97;;
27632;SDS011;15046;50.930;13.334;2022-12-07T13:31:44;8.93;;;3.65;;
27632;SDS011;15046;50.930;13.334;2022-12-07T13:34:31;8.57;;;3.92;;
27632;SDS011;15046;50.930;13.334;2022-12-07T13:37:08;7.85;;;3.40;;
27632;SDS011;15046;50.930;13.334;2022-12-07T13:39:53;10.75;;;4.68;;
27632;SDS011;15046;50.930;13.334;2022-12-07T13:42:25;11.02;;;4.65;;
27632;SDS011;15046;50.930;13.334;2022-12-07T13:44:54;8.60;;;3.70;;
27632;SDS011;15046;50.930;13.334;2022-12-07T13:47:41;7.78;;;3.15;;
27632;SDS011;15046;50.930;13.334;2022-12-07T13:50:28;8.45;;;3.88;;
27632;SDS011;15046;50.930;13.334;2022-12-07T13:52:57;7.13;;;3.33;;
27632;SDS011;15046;50.930;13.334;2022-12-07T13:55:24;8.40;;;3.58;;
27632;SDS011;15046;50.930;13.334;2022-12-07T13:57:51;8.07;;;3.53;;
27632;SDS011;15046;50.930;13.334;2022-12-07T14:00:19;7.38;;;2.88;;
27632;SDS011;15046;50.930;13.334;2022-12-07T14:02:56;9.33;;;3.17;;
27632;SDS011;15046;50.930;13.334;2022-12-07T14:05:28;7.85;;;3.13;;
27632;SDS011;15046;50.930;13.334;2022-12-07T14:08:05;7.35;;;3.97;;
27632;SDS011;15046;50.930;13.334;2022-12-07T14:13:33;9.00;;;3.88;;
27632;SDS011;15046;50.930;13.334;2022-12-07T14:16:01;10.70;;;4.47;;
27632;SDS011;15046;50.930;13.334;2022-12-07T14:23:35;10.13;;;3.53;;
27632;SDS011;15046;50.930;13.334;2022-12-07T14:26:13;6.47;;;3.42;;
27632;SDS011;15046;50.930;13.334;2022-12-07T14:28:41;6.05;;;3.25;;
27632;SDS011;15046;50.930;13.334;2022-12-07T14:31:10;9.30;;;3.58;;
27632;SDS011;15046;50.930;13.334;2022-12-07T14:33:41;4.97;;;2.40;;
27632;SDS011;15046;50.930;13.334;2022-12-07T14:36:13;8.18;;;3.03;;
27632;SDS011;15046;50.930;13.334;2022-12-07T14:38:39;7.50;;;3.13;;
27632;SDS011;15046;50.930;13.334;2022-12-07T14:41:06;6.47;;;2.92;;
27632;SDS011;15046;50.930;13.334;2022-12-07T14:43:58;7.45;;;2.70;;
27632;SDS011;15046;50.930;13.334;2022-12-07T14:46:25;5.93;;;3.20;;
27632;SDS011;15046;50.930;13.334;2022-12-07T14:48:50;4.95;;;2.47;;
27632;SDS011;15046;50.930;13.334;2022-12-07T14:51:16;6.68;;;2.63;;
27632;SDS011;15046;50.930;13.334;2022-12-07T14:53:51;7.45;;;2.45;;
27632;SDS011;15046;50.930;13.334;2022-12-07T14:56:18;7.75;;;3.05;;
27632;SDS011;15046;50.930;13.334;2022-12-07T14:58:43;10.50;;;2.70;;
27632;SDS011;15046;50.930;13.334;2022-12-07T15:01:09;6.82;;;2.50;;
27632;SDS011;15046;50.930;13.334;2022-12-07T15:03:35;6.43;;;2.72;;
27632;SDS011;15046;50.930;13.334;2022-12-07T15:06:04;6.88;;;3.58;;
27632;SDS011;15046;50.930;13.334;2022-12-07T15:08:30;7.82;;;3.50;;
27632;SDS011;15046;50.930;13.334;2022-12-07T15:10:56;8.57;;;3.08;;
27632;SDS011;15046;50.930;13.334;2022-12-07T15:13:22;7.82;;;3.35;;
27632;SDS011;15046;50.930;13.334;2022-12-07T15:16:13;9.90;;;3.47;;
27632;SDS011;15046;50.930;13.334;2022-12-07T15:18:43;6.35;;;3.15;;
27632;SDS011;15046;50.930;13.334;2022-12-07T15:21:15;7.25;;;3.03;;
27632;SDS011;15046;50.930;13.334;2022-12-07T15:23:41;7.90;;;3.00;;
27632;SDS011;15046;50.930;13.334;2022-12-07T15:26:10;5.65;;;2.60;;
27632;SDS011;15046;50.930;13.334;2022-12-07T15:28:36;5.53;;;2.67;;
27632;SDS011;15046;50.930;13.334;2022-12-07T15:31:02;7.65;;;2.90;;
27632;SDS011;15046;50.930;13.334;2022-12-07T15:33:28;9.02;;;2.90;;
27632;SDS011;15046;50.930;13.334;2022-12-07T15:35:53;9.70;;;3.25;;
27632;SDS011;15046;50.930;13.334;2022-12-07T15:38:19;8.77;;;2.65;;
27632;SDS011;15046;50.930;13.334;2022-12-07T15:40:48;5.75;;;2.92;;
27632;SDS011;15046;50.930;13.334;2022-12-07T15:43:13;6.13;;;2.67;;
27632;SDS011;15046;50.930;13.334;2022-12-07T15:45:58;6.28;;;2.90;;
27632;SDS011;15046;50.930;13.334;2022-12-07T15:48:24;4.82;;;2.38;;
27632;SDS011;15046;50.930;13.334;2022-12-07T15:50:50;4.60;;;2.35;;
27632;SDS011;15046;50.930;13.334;2022-12-07T15:53:16;7.97;;;2.80;;
27632;SDS011;15046;50.930;13.334;2022-12-07T15:55:42;5.57;;;2.38;;
27632;SDS011;15046;50.930;13.334;2022-12-07T15:58:08;6.72;;;2.75;;
27632;SDS011;15046;50.930;13.334;2022-12-07T16:00:34;8.55;;;3.47;;
27632;SDS011;15046;50.930;13.334;2022-12-07T16:02:59;5.60;;;2.50;;
27632;SDS011;15046;50.930;13.334;2022-12-07T16:05:25;8.48;;;3.65;;
27632;SDS011;15046;50.930;13.334;2022-12-07T16:07:51;9.15;;;3.25;;
27632;SDS011;15046;50.930;13.334;2022-12-07T16:10:17;5.32;;;2.65;;
27632;SDS011;15046;50.930;13.334;2022-12-07T16:12:42;6.47;;;2.85;;
27632;SDS011;15046;50.930;13.334;2022-12-07T16:15:08;5.15;;;2.38;;
27632;SDS011;15046;50.930;13.334;2022-12-07T16:17:34;5.40;;;1.92;;
27632;SDS011;15046;50.930;13.334;2022-12-07T16:20:00;4.28;;;2.20;;
27632;SDS011;15046;50.930;13.334;2022-12-07T16:22:26;7.40;;;2.30;;
27632;SDS011;15046;50.930;13.334;2022-12-07T16:24:52;5.05;;;2.13;;
27632;SDS011;15046;50.930;13.334;2022-12-07T16:27:17;5.80;;;2.00;;
27632;SDS011;15046;50.930;13.334;2022-12-07T16:29:44;5.40;;;2.58;;
27632;SDS011;15046;50.930;13.334;2022-12-07T16:32:10;5.20;;;1.92;;
27632;SDS011;15046;50.930;13.334;2022-12-07T16:34:35;6.75;;;2.28;;
27632;SDS011;15046;50.930;13.334;2022-12-07T16:37:01;4.65;;;1.98;;
27632;SDS011;15046;50.930;13.334;2022-12-07T16:39:27;5.57;;;2.00;;
27632;SDS011;15046;50.930;13.334;2022-12-07T16:41:53;10.63;;;2.30;;
27632;SDS011;15046;50.930;13.334;2022-12-07T16:44:18;5.38;;;2.10;;
27632;SDS011;15046;50.930;13.334;2022-12-07T16:46:44;12.05;;;2.95;;
27632;SDS011;15046;50.930;13.334;2022-12-07T16:49:11;5.80;;;2.65;;
27632;SDS011;15046;50.930;13.334;2022-12-07T16:51:38;8.25;;;2.97;;
27632;SDS011;15046;50.930;13.334;2022-12-07T16:54:04;5.03;;;2.33;;
27632;SDS011;15046;50.930;13.334;2022-12-07T16:56:30;6.60;;;2.67;;
27632;SDS011;15046;50.930;13.334;2022-12-07T16:58:59;6.85;;;2.58;;
27632;SDS011;15046;50.930;13.334;2022-12-07T17:01:25;6.30;;;2.63;;
27632;SDS011;15046;50.930;13.334;2022-12-07T17:03:53;4.40;;;2.20;;
27632;SDS011;15046;50.930;13.334;2022-12-07T17:08:46;9.68;;;3.33;;
27632;SDS011;15046;50.930;13.334;2022-12-07T17:11:13;7.38;;;2.92;;
27632;SDS011;15046;50.930;13.334;2022-12-07T17:13:45;6.03;;;3.10;;
27632;SDS011;15046;50.930;13.334;2022-12-07T17:16:30;6.40;;;3.00;;